Terminal Aerodrome Forecast
Issued by NWS Twin Cities, MN

Home | Current Version | Previous Version | Text Only | Print | Product List | Glossary On
Versions: 1 2 3 4 5 6 7 8 9 10 11 12 13 14 15 16 17 18 19 20 21 22 23 24 25 26 27
000
FTUS43 KMPX 290300 AAA
TAFMSP
TAF AMD
KMSP 290325Z 2903/3006 12010KT P6SM VCSH OVC008
     FM290800 16008KT 5SM -SHRA BR OVC006
      TEMPO 2911/2915 3SM BR OVC004
     FM291600 20008KT 6SM BR BKN008 OVC025
     FM291900 22007KT P6SM VCSH SCT025 OVC120 PROB30 2919/2923 5SM
      -TSRA OVC025CB=

USA.gov is the U.S. government's official web portal to all federal, state and local government web resources and services.